Terminal Aerodrome Forecast
Issued by NWS Sioux Falls, SD

Home | Current Version | Previous Version | Text Only | Print | Product List | Glossary On
Versions: 1 2 3 4 5 6 7 8 9 10 11 12 13 14 15 16 17 18 19 20 21 22
339
FTUS43 KFSD 141726
TAFFSD
TAF
KFSD 141726Z 1418/1518 17007KT P6SM OVC010
     FM142000 21006KT P6SM OVC015
     FM150200 20004KT P6SM OVC010
     FM150500 21004KT 4SM BR OVC010
     FM150900 VRB03KT 2SM BR BKN008
     FM151300 27004KT 3SM BR BKN010
     FM151600 26006KT P6SM SCT010=

USA.gov is the U.S. government's official web portal to all federal, state and local government web resources and services.